createdAt,value
2019-02-14T00:00:08.260Z,75.10
2019-02-14T00:01:07.792Z,75.20
2019-02-14T00:02:05.767Z,75.20
2019-02-14T00:03:05.409Z,75.20
2019-02-14T00:04:05.506Z,75.20
2019-02-14T00:05:05.665Z,75.40
2019-02-14T00:06:05.797Z,75.40
2019-02-14T00:07:05.940Z,75.50
2019-02-14T00:08:08.114Z,75.60
2019-02-14T00:09:05.204Z,75.50
2019-02-14T00:10:05.242Z,75.60
2019-02-14T00:11:05.435Z,75.50
2019-02-14T00:12:08.204Z,75.40
2019-02-14T00:13:05.228Z,75.40
2019-02-14T00:14:05.382Z,75.40
2019-02-14T00:15:08.054Z,75.40
2019-02-14T00:16:05.141Z,75.40
2019-02-14T00:17:05.248Z,75.40
2019-02-14T00:18:05.371Z,75.70
2019-02-14T00:19:05.658Z,75.50
2019-02-14T00:20:05.873Z,75.50
2019-02-14T00:21:06.009Z,75.60
2019-02-14T00:22:05.107Z,75.70
2019-02-14T00:23:05.277Z,75.70
2019-02-14T00:24:05.424Z,75.60
2019-02-14T00:25:05.523Z,75.60
2019-02-14T00:26:05.728Z,75.60
2019-02-14T00:27:05.897Z,75.50
2019-02-14T00:28:05.203Z,75.60
2019-02-14T00:29:07.841Z,75.50
2019-02-14T00:30:05.950Z,75.50
2019-02-14T00:31:07.684Z,75.40
2019-02-14T00:32:08.207Z,75.30
2019-02-14T00:33:05.260Z,24.10
2019-02-14T00:34:08.029Z,75.50
2019-02-14T00:35:07.663Z,75.60
2019-02-14T00:36:05.737Z,75.60
2019-02-14T00:37:08.374Z,75.60
2019-02-14T00:38:07.855Z,75.60
2019-02-14T00:39:05.849Z,75.70
2019-02-14T00:40:08.478Z,75.70
2019-02-14T00:41:05.532Z,75.60
2019-02-14T00:42:08.355Z,75.60
2019-02-14T00:43:05.274Z,75.60
2019-02-14T00:44:05.514Z,75.60
2019-02-14T00:45:05.622Z,75.60
2019-02-14T00:46:05.908Z,75.80
2019-02-14T00:47:07.822Z,75.90
2019-02-14T00:48:08.550Z,75.90
2019-02-14T00:49:05.486Z,75.80
2019-02-14T00:50:05.601Z,75.90
2019-02-14T00:51:10.722Z,75.90
2019-02-14T00:52:05.739Z,75.90
2019-02-14T00:53:05.786Z,75.90
2019-02-14T00:54:05.886Z,76.00
2019-02-14T00:55:05.004Z,76.00
2019-02-14T00:56:05.269Z,76.10
2019-02-14T00:57:05.381Z,75.90
2019-02-14T00:58:08.034Z,76.10
2019-02-14T00:59:05.116Z,75.90
2019-02-14T01:00:06.428Z,76.10
2019-02-14T01:01:05.522Z,76.00
2019-02-14T01:02:05.666Z,76.00
2019-02-14T01:03:05.750Z,76.10
2019-02-14T01:04:06.003Z,76.10
2019-02-14T01:05:05.215Z,76.10
2019-02-14T01:06:08.049Z,76.20
2019-02-14T01:07:10.177Z,76.30
2019-02-14T01:08:05.169Z,76.30
2019-02-14T01:09:07.829Z,76.40
2019-02-14T01:10:05.970Z,76.40
2019-02-14T01:11:05.242Z,76.50
2019-02-14T01:12:05.421Z,76.50
2019-02-14T01:13:05.595Z,76.50
2019-02-14T01:14:05.882Z,76.40
2019-02-14T01:15:04.981Z,76.60
2019-02-14T01:16:07.673Z,76.60
2019-02-14T01:17:08.195Z,76.70
2019-02-14T01:18:05.284Z,76.70
2019-02-14T01:19:05.447Z,76.70
2019-02-14T01:20:08.064Z,76.70
2019-02-14T01:21:05.101Z,76.70
2019-02-14T01:22:07.749Z,76.70
2019-02-14T01:23:05.713Z,76.70
2019-02-14T01:24:05.905Z,76.80
2019-02-14T01:25:04.984Z,76.70
2019-02-14T01:26:05.141Z,76.80
2019-02-14T01:27:07.912Z,76.80
2019-02-14T01:28:06.051Z,76.80
2019-02-14T01:29:05.533Z,76.80
2019-02-14T01:30:05.057Z,76.70
2019-02-14T01:31:05.159Z,76.70
2019-02-14T01:32:05.223Z,76.80
2019-02-14T01:33:05.361Z,76.80
2019-02-14T01:34:05.507Z,76.70
2019-02-14T01:35:05.777Z,76.80
2019-02-14T01:36:06.032Z,77.00
2019-02-14T01:37:05.134Z,76.90
2019-02-14T01:38:05.309Z,77.00
2019-02-14T01:39:08.047Z,77.00
2019-02-14T01:40:05.108Z,77.10
2019-02-14T01:41:05.186Z,77.10
2019-02-14T01:42:05.288Z,77.30
2019-02-14T01:43:05.380Z,77.20
2019-02-14T01:44:05.495Z,77.30
2019-02-14T01:45:05.607Z,77.40
2019-02-14T01:46:05.714Z,77.40
2019-02-14T01:47:08.368Z,77.40
2019-02-14T01:48:08.036Z,77.50
2019-02-14T01:49:05.054Z,77.40
2019-02-14T01:50:05.244Z,77.40
2019-02-14T01:51:05.324Z,77.30
2019-02-14T01:52:07.914Z,77.50
2019-02-14T01:53:05.886Z,77.50
2019-02-14T01:54:05.040Z,77.40
2019-02-14T01:55:05.200Z,77.50
2019-02-14T01:56:05.436Z,77.40
2019-02-14T01:57:05.468Z,77.40
2019-02-14T01:58:05.752Z,77.40
2019-02-14T01:59:05.917Z,77.40
2019-02-14T02:00:05.032Z,77.40
2019-02-14T02:01:05.149Z,77.40
2019-02-14T02:02:05.255Z,77.30
2019-02-14T02:03:05.349Z,77.30
2019-02-14T02:04:05.499Z,77.30
2019-02-14T02:05:05.593Z,77.50
2019-02-14T02:06:08.182Z,77.60
2019-02-14T02:07:05.144Z,77.60
2019-02-14T02:08:05.240Z,77.70
2019-02-14T02:09:05.344Z,77.70
2019-02-14T02:10:05.501Z,77.50
2019-02-14T02:11:05.587Z,77.60
2019-02-14T02:12:08.134Z,77.70
2019-02-14T02:13:05.142Z,77.70
2019-02-14T02:14:07.831Z,78.00
2019-02-14T02:15:05.879Z,78.00
2019-02-14T02:16:05.012Z,77.90
2019-02-14T02:17:05.191Z,77.90
2019-02-14T02:18:05.437Z,78.00
2019-02-14T02:19:05.596Z,78.10
2019-02-14T02:20:08.204Z,78.20
2019-02-14T02:21:05.163Z,78.20
2019-02-14T02:22:05.332Z,78.20
2019-02-14T02:23:07.978Z,78.30
2019-02-14T02:24:05.950Z,78.30
2019-02-14T02:25:07.686Z,78.20
2019-02-14T02:26:05.744Z,78.20
2019-02-14T02:27:05.798Z,78.10
2019-02-14T02:28:06.004Z,78.20
2019-02-14T02:29:05.159Z,78.10
2019-02-14T02:30:05.578Z,78.10
2019-02-14T02:31:05.667Z,78.00
2019-02-14T02:32:05.807Z,78.10
2019-02-14T02:33:05.956Z,78.10
2019-02-14T02:34:05.079Z,78.10
2019-02-14T02:35:07.705Z,78.10
2019-02-14T02:36:08.202Z,78.00
2019-02-14T02:37:05.283Z,78.00
2019-02-14T02:38:05.386Z,78.00
2019-02-14T02:39:05.521Z,78.00
2019-02-14T02:40:08.135Z,77.90
2019-02-14T02:41:05.152Z,78.00
2019-02-14T02:42:07.879Z,78.00
2019-02-14T02:43:08.546Z,78.00
2019-02-14T02:44:05.665Z,78.00
2019-02-14T02:45:08.407Z,78.10
2019-02-14T02:46:08.049Z,78.10
2019-02-14T02:47:05.065Z,78.10
2019-02-14T02:48:05.379Z,78.10
2019-02-14T02:49:08.054Z,77.80
2019-02-14T02:50:04.994Z,77.80
2019-02-14T02:51:05.120Z,78.00
2019-02-14T02:52:05.278Z,78.00
2019-02-14T02:53:05.483Z,78.10
2019-02-14T02:54:05.619Z,78.00
2019-02-14T02:55:05.719Z,78.10
2019-02-14T02:56:08.455Z,78.20
2019-02-14T02:57:08.075Z,78.20
2019-02-14T02:58:05.089Z,78.10
2019-02-14T02:59:05.654Z,78.20
2019-02-14T03:00:05.944Z,78.20
2019-02-14T03:01:05.194Z,78.20
2019-02-14T03:02:05.358Z,78.20
2019-02-14T03:03:05.465Z,78.20
2019-02-14T03:04:05.578Z,78.20
2019-02-14T03:05:06.028Z,78.30
2019-02-14T03:06:11.147Z,78.30
2019-02-14T03:07:05.326Z,78.50
2019-02-14T03:08:05.408Z,78.40
2019-02-14T03:09:05.523Z,78.50
2019-02-14T03:10:08.198Z,78.40
2019-02-14T03:11:05.154Z,78.30
2019-02-14T03:12:05.244Z,78.30
2019-02-14T03:13:05.462Z,78.40
2019-02-14T03:14:05.606Z,78.40
2019-02-14T03:15:05.827Z,78.40
2019-02-14T03:16:04.994Z,78.40
2019-02-14T03:17:05.293Z,78.50
2019-02-14T03:18:07.970Z,78.50
2019-02-14T03:19:05.024Z,78.50
2019-02-14T03:20:05.257Z,78.50
2019-02-14T03:21:05.397Z,78.60
2019-02-14T03:22:05.486Z,78.60
2019-02-14T03:23:05.616Z,78.70
2019-02-14T03:24:05.725Z,78.70
2019-02-14T03:25:05.844Z,78.70
2019-02-14T03:26:07.473Z,78.70
2019-02-14T03:27:05.466Z,78.70
2019-02-14T03:28:05.617Z,78.70
2019-02-14T03:29:05.909Z,78.70
2019-02-14T03:30:05.047Z,78.80
2019-02-14T03:31:05.277Z,78.90
2019-02-14T03:32:05.506Z,78.90
2019-02-14T03:33:05.129Z,78.90
2019-02-14T03:34:05.246Z,79.00
2019-02-14T03:35:05.887Z,79.10
2019-02-14T03:36:07.983Z,79.10
2019-02-14T03:37:07.700Z,79.10
2019-02-14T03:38:05.751Z,79.10
2019-02-14T03:39:05.944Z,79.10
2019-02-14T03:40:05.083Z,79.10
2019-02-14T03:41:05.172Z,79.20
2019-02-14T03:42:05.338Z,79.50
2019-02-14T03:43:05.432Z,79.40
2019-02-14T03:44:05.592Z,79.30
2019-02-14T03:45:05.930Z,79.30
2019-02-14T03:46:07.555Z,79.30
2019-02-14T03:47:08.227Z,79.20
2019-02-14T03:48:07.790Z,79.20
2019-02-14T03:49:08.323Z,79.20
2019-02-14T03:50:05.433Z,79.20
2019-02-14T03:51:05.712Z,79.10
2019-02-14T03:52:08.383Z,79.40
2019-02-14T03:53:05.555Z,79.30
2019-02-14T03:54:05.809Z,79.30
2019-02-14T03:55:05.932Z,79.40
2019-02-14T03:56:07.535Z,79.40
2019-02-14T03:57:08.137Z,79.40
2019-02-14T03:58:07.834Z,79.40
2019-02-14T03:59:05.859Z,79.40
2019-02-14T04:00:05.994Z,79.40
2019-02-14T04:01:05.164Z,79.40
2019-02-14T04:02:05.446Z,79.40
2019-02-14T04:03:05.640Z,79.30
2019-02-14T04:04:08.452Z,79.30
2019-02-14T04:05:07.934Z,79.20
2019-02-14T04:06:06.145Z,79.30
2019-02-14T04:07:05.414Z,79.20
2019-02-14T04:08:05.567Z,79.30
2019-02-14T04:09:05.694Z,79.30
2019-02-14T04:10:05.820Z,79.40
2019-02-14T04:11:05.927Z,79.30
2019-02-14T04:12:10.039Z,79.40
2019-02-14T04:13:04.980Z,79.40
2019-02-14T04:14:05.482Z,79.40
2019-02-14T04:15:05.688Z,79.40
2019-02-14T04:16:08.301Z,79.50
2019-02-14T04:17:07.968Z,79.50
2019-02-14T04:18:10.082Z,79.50
2019-02-14T04:19:05.093Z,79.40
2019-02-14T04:20:05.316Z,79.60
2019-02-14T04:21:05.375Z,79.40
2019-02-14T04:22:10.607Z,79.60
2019-02-14T04:23:08.105Z,79.60
2019-02-14T04:24:07.565Z,79.60
2019-02-14T04:25:08.080Z,79.60
2019-02-14T04:26:07.644Z,79.70
2019-02-14T04:27:05.593Z,79.70
2019-02-14T04:28:08.174Z,79.80
2019-02-14T04:29:07.783Z,80.00
2019-02-14T04:30:08.631Z,80.00
2019-02-14T04:31:05.691Z,80.00
2019-02-14T04:32:05.849Z,80.00
2019-02-14T04:33:05.996Z,80.10
2019-02-14T04:34:05.105Z,80.10
2019-02-14T04:35:05.213Z,80.10
2019-02-14T04:36:05.494Z,80.10
2019-02-14T04:37:05.697Z,80.10
2019-02-14T04:38:05.851Z,80.20
2019-02-14T04:39:05.946Z,80.20
2019-02-14T04:40:05.687Z,80.40
2019-02-14T04:41:05.784Z,80.30
2019-02-14T04:42:05.957Z,80.50
2019-02-14T04:43:07.631Z,80.50
2019-02-14T04:44:05.815Z,80.50
2019-02-14T04:45:05.995Z,80.40
2019-02-14T04:46:07.573Z,80.50
2019-02-14T04:47:05.566Z,80.30
2019-02-14T04:48:05.896Z,80.30
2019-02-14T04:49:05.062Z,80.30
2019-02-14T04:50:07.730Z,80.50
2019-02-14T04:51:05.830Z,80.40
2019-02-14T04:52:04.951Z,80.50
2019-02-14T04:53:05.171Z,80.60
2019-02-14T04:54:05.238Z,80.60
2019-02-14T04:55:05.321Z,80.60
2019-02-14T04:56:08.003Z,80.80
2019-02-14T04:57:05.019Z,80.80
2019-02-14T04:58:05.383Z,80.70
2019-02-14T04:59:05.723Z,80.80
2019-02-14T05:00:05.911Z,80.80
2019-02-14T05:01:05.585Z,80.90
2019-02-14T05:02:05.883Z,80.90
2019-02-14T05:03:07.686Z,81.00
2019-02-14T05:04:05.907Z,81.00
2019-02-14T05:05:07.574Z,81.00
2019-02-14T05:06:08.190Z,81.00
2019-02-14T05:07:05.219Z,81.00
2019-02-14T05:08:05.448Z,81.20
2019-02-14T05:09:05.613Z,81.20
2019-02-14T05:10:08.209Z,81.40
2019-02-14T05:11:05.223Z,81.40
2019-02-14T05:12:05.363Z,81.20
2019-02-14T05:13:08.004Z,81.20
2019-02-14T05:14:04.984Z,81.30
2019-02-14T05:15:07.627Z,81.20
2019-02-14T05:16:05.845Z,81.20
2019-02-14T05:17:07.613Z,81.10
2019-02-14T05:18:08.059Z,81.10
2019-02-14T05:19:05.028Z,81.20
2019-02-14T05:20:05.191Z,81.10
2019-02-14T05:21:05.326Z,81.00
2019-02-14T05:22:08.075Z,80.90
2019-02-14T05:23:05.157Z,80.90
2019-02-14T05:24:07.778Z,80.90
2019-02-14T05:25:08.780Z,81.10
2019-02-14T05:26:08.332Z,81.10
2019-02-14T05:27:07.819Z,81.20
2019-02-14T05:28:05.969Z,81.20
2019-02-14T05:29:07.675Z,81.40
2019-02-14T05:30:08.326Z,81.50
2019-02-14T05:31:07.927Z,81.30
2019-02-14T05:32:07.633Z,81.30
2019-02-14T05:33:08.182Z,81.30
2019-02-14T05:34:05.121Z,81.30
2019-02-14T05:35:05.237Z,81.30
2019-02-14T05:36:05.362Z,81.40
2019-02-14T05:37:05.480Z,81.60
2019-02-14T05:38:05.591Z,81.60
2019-02-14T05:39:05.793Z,81.70
2019-02-14T05:40:06.025Z,81.70
2019-02-14T05:41:05.176Z,81.80
2019-02-14T05:42:07.822Z,81.80
2019-02-14T05:43:08.288Z,81.90
2019-02-14T05:44:05.471Z,81.90
2019-02-14T05:45:08.288Z,81.90
2019-02-14T05:46:05.294Z,81.90
2019-02-14T05:47:05.362Z,81.90
2019-02-14T05:48:08.056Z,82.00
2019-02-14T05:49:07.589Z,82.10
2019-02-14T05:50:05.671Z,82.10
2019-02-14T05:51:08.280Z,82.00
2019-02-14T05:52:07.975Z,82.00
2019-02-14T05:53:05.266Z,82.00
2019-02-14T05:54:08.087Z,82.00
2019-02-14T05:55:05.254Z,82.00
2019-02-14T05:56:08.065Z,82.00
2019-02-14T05:57:05.054Z,82.00
2019-02-14T05:58:07.680Z,82.20
2019-02-14T05:59:05.665Z,82.20
2019-02-14T06:00:05.810Z,82.30
2019-02-14T06:01:08.554Z,82.20
2019-02-14T06:02:05.530Z,82.20
2019-02-14T06:03:08.137Z,82.30
2019-02-14T06:04:05.150Z,82.40
2019-02-14T06:05:10.466Z,82.30
2019-02-14T06:06:05.659Z,82.30
2019-02-14T06:07:05.838Z,82.30
2019-02-14T06:08:05.009Z,82.40
2019-02-14T06:09:05.828Z,82.40
2019-02-14T06:10:05.944Z,82.60
2019-02-14T06:11:05.042Z,82.40
2019-02-14T06:12:07.826Z,82.50
2019-02-14T06:13:10.861Z,82.50
2019-02-14T06:14:05.888Z,82.50
2019-02-14T06:15:07.532Z,82.50
2019-02-14T06:16:05.541Z,82.50
2019-02-14T06:17:07.910Z,82.60
2019-02-14T06:18:08.491Z,82.50
2019-02-14T06:19:08.038Z,82.50
2019-02-14T06:20:07.517Z,82.50
2019-02-14T06:21:05.558Z,82.50
2019-02-14T06:22:05.789Z,82.50
2019-02-14T06:23:06.114Z,82.50
2019-02-14T06:24:05.395Z,82.50
2019-02-14T06:25:05.539Z,82.50
2019-02-14T06:26:08.325Z,82.30
2019-02-14T06:27:05.358Z,82.50
2019-02-14T06:28:08.103Z,82.30
2019-02-14T06:29:05.149Z,82.50
2019-02-14T06:30:05.679Z,82.30
2019-02-14T06:31:08.416Z,82.30
2019-02-14T06:32:07.958Z,82.40
2019-02-14T06:33:07.537Z,82.50
2019-02-14T06:34:05.605Z,82.60
2019-02-14T06:35:05.733Z,82.60
2019-02-14T06:36:08.344Z,82.70
2019-02-14T06:37:10.252Z,82.70
2019-02-14T06:38:05.650Z,82.70
2019-02-14T06:39:05.873Z,82.70
2019-02-14T06:40:05.072Z,82.70
2019-02-14T06:41:05.382Z,82.70
2019-02-14T06:42:05.589Z,82.70
2019-02-14T06:43:05.735Z,82.70
2019-02-14T06:44:05.871Z,82.70
2019-02-14T06:45:07.541Z,82.50
2019-02-14T06:46:08.103Z,82.50
2019-02-14T06:47:05.234Z,82.50
2019-02-14T06:48:05.400Z,82.70
2019-02-14T06:49:05.588Z,82.70
2019-02-14T06:50:10.288Z,82.80
2019-02-14T06:51:07.788Z,82.80
2019-02-14T06:52:10.896Z,82.80
2019-02-14T06:53:08.471Z,82.80
2019-02-14T06:54:05.468Z,82.80
2019-02-14T06:55:08.577Z,82.80
2019-02-14T06:56:05.603Z,82.80
2019-02-14T06:57:05.986Z,82.80
2019-02-14T06:58:05.247Z,82.80
2019-02-14T06:59:05.347Z,82.80
2019-02-14T07:00:05.720Z,82.90
2019-02-14T07:01:06.083Z,82.90
2019-02-14T07:02:07.906Z,82.90
2019-02-14T07:03:08.489Z,83.00
2019-02-14T07:04:08.081Z,83.10
2019-02-14T07:05:05.174Z,83.10
2019-02-14T07:06:10.381Z,83.10
2019-02-14T07:07:05.422Z,83.20
2019-02-14T07:08:05.573Z,83.30
2019-02-14T07:09:05.741Z,83.20
2019-02-14T07:10:08.384Z,83.20
2019-02-14T07:11:05.471Z,83.20
2019-02-14T07:12:05.722Z,83.30
2019-02-14T07:13:05.887Z,83.20
2019-02-14T07:14:05.011Z,83.20
2019-02-14T07:15:05.143Z,83.30
2019-02-14T07:16:09.281Z,83.30
2019-02-14T07:17:05.773Z,83.20
2019-02-14T07:18:06.067Z,83.30
2019-02-14T07:19:05.302Z,83.30
2019-02-14T07:20:05.410Z,83.30
2019-02-14T07:21:05.518Z,83.30
2019-02-14T07:22:05.725Z,83.30
2019-02-14T07:23:05.976Z,83.20
2019-02-14T07:24:05.133Z,83.30
2019-02-14T07:25:05.265Z,83.30
2019-02-14T07:26:05.438Z,83.30
2019-02-14T07:27:05.796Z,83.20
2019-02-14T07:28:04.995Z,83.30
2019-02-14T07:29:05.119Z,83.30
2019-02-14T07:30:05.426Z,83.30
2019-02-14T07:31:05.637Z,83.40
2019-02-14T07:32:08.427Z,83.30
2019-02-14T07:33:08.101Z,83.40
2019-02-14T07:34:05.163Z,83.30
2019-02-14T07:35:10.365Z,83.50
2019-02-14T07:36:07.885Z,83.50
2019-02-14T07:37:05.954Z,83.50
2019-02-14T07:38:05.248Z,83.50
2019-02-14T07:39:05.454Z,83.40
2019-02-14T07:40:05.611Z,83.50
2019-02-14T07:41:05.676Z,83.50
2019-02-14T07:42:07.846Z,83.50
2019-02-14T07:43:05.967Z,83.50
2019-02-14T07:44:05.214Z,83.50
2019-02-14T07:45:05.714Z,83.40
2019-02-14T07:46:05.958Z,83.60
2019-02-14T07:47:05.155Z,83.60
2019-02-14T07:48:07.952Z,83.50
2019-02-14T07:49:07.694Z,83.50
2019-02-14T07:50:08.267Z,83.50
2019-02-14T07:51:05.265Z,83.50
2019-02-14T07:52:05.437Z,83.50
2019-02-14T07:53:05.566Z,83.50
2019-02-14T07:54:08.371Z,83.50
2019-02-14T07:55:08.171Z,83.50
2019-02-14T07:56:07.688Z,83.60
2019-02-14T07:57:05.702Z,83.50
2019-02-14T07:58:05.875Z,83.60
2019-02-14T07:59:07.573Z,83.80
2019-02-14T08:00:08.183Z,83.80
2019-02-14T08:01:05.247Z,83.60
2019-02-14T08:02:05.489Z,83.80
2019-02-14T08:03:05.632Z,83.80
2019-02-14T08:04:05.715Z,83.80
2019-02-14T08:05:08.552Z,83.70
2019-02-14T08:06:13.351Z,83.70
2019-02-14T08:07:05.410Z,83.70
2019-02-14T08:08:05.633Z,83.60
2019-02-14T08:09:05.919Z,83.60
2019-02-14T08:10:05.069Z,83.70
2019-02-14T08:11:05.336Z,83.70
2019-02-14T08:12:05.456Z,83.70
2019-02-14T08:13:05.746Z,83.90
2019-02-14T08:14:06.050Z,83.80
2019-02-14T08:15:05.210Z,83.90
2019-02-14T08:16:05.335Z,83.80
2019-02-14T08:17:05.532Z,83.80
2019-02-14T08:18:05.655Z,83.80
2019-02-14T08:19:08.356Z,83.80
2019-02-14T08:20:07.874Z,84.00
2019-02-14T08:21:08.422Z,83.90
2019-02-14T08:22:08.152Z,84.00
2019-02-14T08:23:05.187Z,84.00
2019-02-14T08:24:05.349Z,84.00
2019-02-14T08:25:05.467Z,84.10
2019-02-14T08:26:11.420Z,84.00
2019-02-14T08:27:05.582Z,84.00
2019-02-14T08:28:05.720Z,84.10
2019-02-14T08:29:05.857Z,84.10
2019-02-14T08:30:05.011Z,84.20
2019-02-14T08:31:07.864Z,84.30
2019-02-14T08:32:06.065Z,84.40
2019-02-14T08:33:05.206Z,84.40
2019-02-14T08:34:05.344Z,84.40
2019-02-14T08:35:06.982Z,84.30
2019-02-14T08:36:07.797Z,84.30
2019-02-14T08:37:05.833Z,84.30
2019-02-14T08:38:05.148Z,84.40
2019-02-14T08:39:05.322Z,84.40
2019-02-14T08:40:05.470Z,84.30
2019-02-14T08:41:08.274Z,84.40
2019-02-14T08:42:05.334Z,84.40
2019-02-14T08:43:07.969Z,84.30
2019-02-14T08:44:08.640Z,84.30
2019-02-14T08:45:10.837Z,84.30
2019-02-14T08:46:08.511Z,84.10
2019-02-14T08:47:05.665Z,84.10
2019-02-14T08:48:05.852Z,84.10
2019-02-14T08:49:07.592Z,84.10
2019-02-14T08:50:05.745Z,84.20
2019-02-14T08:51:05.894Z,84.10
2019-02-14T08:52:10.092Z,84.00
2019-02-14T08:53:07.759Z,83.90
2019-02-14T08:54:05.760Z,83.90
2019-02-14T08:55:05.921Z,83.80
2019-02-14T08:56:10.121Z,83.70
2019-02-14T08:57:05.236Z,83.70
2019-02-14T08:58:05.418Z,83.60
2019-02-14T08:59:08.195Z,83.40
2019-02-14T09:00:05.212Z,83.50
2019-02-14T09:01:05.353Z,83.40
2019-02-14T09:02:07.990Z,83.30
2019-02-14T09:03:05.125Z,83.30
2019-02-14T09:04:05.357Z,83.20
2019-02-14T09:05:05.576Z,83.30
2019-02-14T09:06:05.757Z,83.20
2019-02-14T09:07:05.912Z,83.10
2019-02-14T09:08:05.077Z,83.00
2019-02-14T09:09:10.238Z,83.00
2019-02-14T09:10:07.758Z,83.00
2019-02-14T09:11:05.823Z,83.00
2019-02-14T09:12:06.060Z,83.00
2019-02-14T09:13:16.688Z,82.90
2019-02-14T09:14:05.238Z,83.00
2019-02-14T09:15:05.424Z,82.90
2019-02-14T09:16:05.645Z,82.90
2019-02-14T09:17:05.924Z,82.80
2019-02-14T09:18:08.309Z,82.80
2019-02-14T09:19:07.897Z,82.80
2019-02-14T09:20:05.927Z,82.80
2019-02-14T09:21:05.100Z,82.70
2019-02-14T09:22:07.889Z,82.60
2019-02-14T09:23:08.493Z,82.60
2019-02-14T09:24:05.550Z,82.60
2019-02-14T09:25:05.758Z,82.70
2019-02-14T09:26:05.864Z,82.60
2019-02-14T09:27:07.518Z,82.70
2019-02-14T09:28:05.594Z,82.60
2019-02-14T09:29:05.906Z,82.60
2019-02-14T09:30:07.902Z,82.30
2019-02-14T09:31:08.463Z,82.30
2019-02-14T09:32:05.679Z,82.20
2019-02-14T09:33:10.895Z,82.10
2019-02-14T09:34:08.465Z,82.00
2019-02-14T09:35:08.041Z,81.80
2019-02-14T09:36:05.051Z,81.80
2019-02-14T09:37:05.178Z,81.80
2019-02-14T09:38:12.929Z,81.80
2019-02-14T09:39:08.485Z,81.30
2019-02-14T09:40:05.525Z,81.30
2019-02-14T09:41:05.720Z,80.60
2019-02-14T09:42:06.063Z,79.90
2019-02-14T09:43:05.374Z,79.60
2019-02-14T09:44:05.753Z,79.60
2019-02-14T09:45:06.040Z,79.80
2019-02-14T09:46:05.274Z,79.70
2019-02-14T09:47:08.194Z,79.20
2019-02-14T09:48:05.186Z,79.20
2019-02-14T09:49:05.394Z,79.20
2019-02-14T09:50:08.222Z,78.80
2019-02-14T09:51:05.315Z,78.80
2019-02-14T09:52:08.025Z,78.90
2019-02-14T09:53:05.062Z,78.90
2019-02-14T09:54:05.242Z,78.80
2019-02-14T09:55:08.069Z,78.70
2019-02-14T09:56:10.143Z,78.60
2019-02-14T09:57:05.256Z,78.60
2019-02-14T09:58:07.961Z,78.40
2019-02-14T09:59:08.479Z,78.10
2019-02-14T10:00:08.122Z,78.00
2019-02-14T10:01:05.236Z,78.00
2019-02-14T10:02:07.957Z,77.70
2019-02-14T10:03:10.114Z,77.10
2019-02-14T10:04:07.649Z,77.00
2019-02-14T10:05:05.738Z,77.00
2019-02-14T10:06:06.127Z,77.00
2019-02-14T10:07:05.461Z,77.00
2019-02-14T10:08:13.352Z,76.90
2019-02-14T10:09:05.663Z,76.60
2019-02-14T10:10:08.345Z,76.50
2019-02-14T10:11:07.907Z,76.30
2019-02-14T10:12:08.603Z,76.10
2019-02-14T10:13:05.586Z,76.10
2019-02-14T10:14:08.237Z,76.00
2019-02-14T10:15:05.230Z,76.00
2019-02-14T10:16:05.426Z,75.90
2019-02-14T10:17:08.199Z,75.20
2019-02-14T10:18:07.767Z,74.80
2019-02-14T10:19:08.393Z,74.80
2019-02-14T10:20:05.427Z,74.80
2019-02-14T10:21:05.511Z,74.90
2019-02-14T10:22:05.618Z,74.60
2019-02-14T10:23:05.764Z,74.50
2019-02-14T10:24:06.143Z,74.60
2019-02-14T10:25:05.312Z,74.50
2019-02-14T10:26:08.008Z,73.40
2019-02-14T10:27:07.658Z,73.60
2019-02-14T10:28:05.759Z,73.60
2019-02-14T10:29:05.971Z,73.70
2019-02-14T10:30:05.685Z,73.40
2019-02-14T10:31:05.802Z,73.40
2019-02-14T10:32:05.952Z,73.20
2019-02-14T10:33:07.603Z,73.00
2019-02-14T10:34:05.582Z,73.10
2019-02-14T10:35:05.829Z,73.10
2019-02-14T10:36:05.079Z,72.70
2019-02-14T10:37:07.862Z,72.70
2019-02-14T10:38:06.069Z,72.70
2019-02-14T10:39:05.287Z,72.30
2019-02-14T10:40:08.075Z,72.50
2019-02-14T10:41:10.406Z,72.50
2019-02-14T10:42:05.399Z,72.50
2019-02-14T10:43:05.629Z,72.30
2019-02-14T10:44:05.753Z,72.30
2019-02-14T10:45:08.464Z,72.10
2019-02-14T10:46:05.438Z,72.10
2019-02-14T10:47:05.553Z,71.90
2019-02-14T10:48:08.175Z,71.70
2019-02-14T10:49:05.227Z,71.70
2019-02-14T10:50:05.580Z,71.20
2019-02-14T10:51:05.772Z,71.10
2019-02-14T10:52:05.984Z,71.00
2019-02-14T10:53:05.090Z,70.70
2019-02-14T10:54:05.335Z,70.90
2019-02-14T10:55:08.004Z,70.30
2019-02-14T10:56:05.097Z,70.30
2019-02-14T10:57:05.317Z,70.60
2019-02-14T10:58:07.986Z,70.80
2019-02-14T10:59:07.531Z,70.70
2019-02-14T11:00:05.585Z,70.70
2019-02-14T11:01:08.227Z,69.70
2019-02-14T11:02:05.335Z,69.70
2019-02-14T11:03:05.639Z,69.80
2019-02-14T11:04:05.860Z,69.80
2019-02-14T11:05:10.205Z,70.00
2019-02-14T11:06:05.363Z,70.00
2019-02-14T11:07:05.570Z,69.80
2019-02-14T11:08:05.797Z,69.30
2019-02-14T11:09:06.002Z,68.80
2019-02-14T11:10:07.789Z,69.00
2019-02-14T11:11:08.543Z,68.80
2019-02-14T11:12:05.654Z,68.80
2019-02-14T11:13:06.005Z,68.60
2019-02-14T11:14:07.655Z,68.40
2019-02-14T11:15:05.754Z,68.40
2019-02-14T11:16:05.832Z,68.10
2019-02-14T11:17:07.529Z,67.60
2019-02-14T11:18:08.152Z,67.30
2019-02-14T11:19:10.218Z,67.30
2019-02-14T11:20:05.280Z,67.30
2019-02-14T11:21:05.446Z,67.20
2019-02-14T11:22:05.568Z,67.10
2019-02-14T11:23:05.747Z,66.50
2019-02-14T11:24:05.851Z,65.90
2019-02-14T11:25:07.476Z,65.20
2019-02-14T11:26:05.557Z,65.20
2019-02-14T11:27:05.649Z,65.40
2019-02-14T11:28:10.971Z,65.30
2019-02-14T11:29:07.641Z,64.00
2019-02-14T11:30:05.795Z,64.00
2019-02-14T11:31:08.456Z,64.10
2019-02-14T11:32:05.461Z,64.00
2019-02-14T11:33:05.647Z,64.20
2019-02-14T11:34:05.741Z,64.30
2019-02-14T11:35:08.460Z,62.20
2019-02-14T11:36:05.517Z,62.20
2019-02-14T11:37:05.678Z,61.90
2019-02-14T11:38:05.807Z,62.10
2019-02-14T11:39:05.055Z,62.00
2019-02-14T11:40:07.674Z,60.60
2019-02-14T11:41:05.717Z,60.50
2019-02-14T11:42:05.810Z,60.70
2019-02-14T11:43:06.039Z,59.80
2019-02-14T11:44:05.169Z,59.40
2019-02-14T11:45:05.220Z,59.30
2019-02-14T11:46:05.400Z,59.70
2019-02-14T11:47:07.327Z,59.90
2019-02-14T11:48:05.082Z,59.70
2019-02-14T11:49:07.924Z,57.50
2019-02-14T11:50:08.446Z,56.90
2019-02-14T11:51:05.445Z,56.90
2019-02-14T11:52:05.500Z,55.90
2019-02-14T11:53:14.556Z,55.20
2019-02-14T11:54:08.276Z,55.20
2019-02-14T11:55:05.245Z,55.10
2019-02-14T11:56:09.841Z,53.90
2019-02-14T11:57:10.431Z,53.30
2019-02-14T11:58:08.025Z,53.40
2019-02-14T11:59:04.937Z,53.40
2019-02-14T12:00:05.069Z,53.70
2019-02-14T12:01:05.201Z,53.90
2019-02-14T12:02:05.238Z,53.20
2019-02-14T12:03:05.452Z,52.20
2019-02-14T12:04:08.209Z,52.30
2019-02-14T12:05:05.231Z,52.30
2019-02-14T12:06:05.329Z,52.70
2019-02-14T12:07:07.892Z,51.30
2019-02-14T12:08:05.870Z,51.20
2019-02-14T12:09:06.071Z,51.30
2019-02-14T12:10:13.991Z,50.90
2019-02-14T12:11:05.165Z,50.50
2019-02-14T12:12:07.985Z,49.90
2019-02-14T12:13:05.047Z,50.00
2019-02-14T12:14:05.168Z,49.70
2019-02-14T12:15:05.250Z,49.40
2019-02-14T12:16:05.352Z,49.90
2019-02-14T12:17:05.072Z,50.10
2019-02-14T12:18:05.704Z,49.60
2019-02-14T12:19:05.875Z,49.50
2019-02-14T12:20:12.929Z,49.70
2019-02-14T12:21:05.983Z,49.60
2019-02-14T12:22:05.159Z,49.40
2019-02-14T12:23:05.311Z,49.30
2019-02-14T12:24:05.404Z,49.10
2019-02-14T12:25:05.513Z,48.60
2019-02-14T12:26:06.228Z,48.50
2019-02-14T12:27:05.439Z,48.50
2019-02-14T12:28:10.773Z,48.20
2019-02-14T12:29:05.973Z,48.20
2019-02-14T12:30:10.273Z,47.60
2019-02-14T12:31:05.335Z,47.50
2019-02-14T12:32:05.519Z,47.60
2019-02-14T12:33:05.733Z,47.30
2019-02-14T12:34:05.770Z,47.00
2019-02-14T12:35:05.931Z,46.90
2019-02-14T12:36:07.541Z,46.70
2019-02-14T12:37:05.518Z,46.70
2019-02-14T12:38:08.168Z,46.20
2019-02-14T12:39:11.509Z,46.20
2019-02-14T12:40:05.837Z,46.60
2019-02-14T12:41:05.995Z,46.50
2019-02-14T12:42:07.657Z,46.80
2019-02-14T12:43:08.168Z,45.80
2019-02-14T12:44:05.190Z,45.80
2019-02-14T12:45:05.270Z,46.30
2019-02-14T12:46:05.625Z,46.30
2019-02-14T12:47:05.818Z,46.40
2019-02-14T12:48:07.611Z,46.70
2019-02-14T12:49:08.137Z,46.30
2019-02-14T12:50:07.630Z,46.10
2019-02-14T12:51:13.294Z,45.60
2019-02-14T12:52:05.345Z,45.60